Time;durP1;ratioP1;P1;durP2;ratioP2;P2;SDS_P1;SDS_P2;PMS_P1;PMS_P2;Temp;Humidity;BMP_temperature;BMP_pressure;BME280_temperature;BME280_humidity;BME280_pressure;Samples;Min_cycle;Max_cycle;Signal;HPM_P1;HPM_P2
2021/10/25 00:02:12;;;;;;;13.05;3.72;;;;;;;5.82;82.88;101920.19;10286462;28;20816;-69
2021/10/25 00:07:08;;;;;;;8.80;3.22;;;;;;;5.80;82.85;101923.16;10292527;28;20064;-66
2021/10/25 00:12:05;;;;;;;9.48;3.40;;;;;;;5.78;83.05;101919.03;10299807;28;20498;-69
2021/10/25 00:17:02;;;;;;;7.00;3.40;;;;;;;5.73;83.58;101916.28;10292576;28;20071;-70
2021/10/25 00:21:59;;;;;;;9.63;3.35;;;;;;;5.77;83.29;101907.38;10294512;28;20109;-69
2021/10/25 00:26:55;;;;;;;7.13;3.17;;;;;;;5.75;83.49;101914.13;10289117;28;20086;-69
2021/10/25 00:31:52;;;;;;;6.20;3.13;;;;;;;5.73;83.51;101913.56;10299339;28;20154;-69
2021/10/25 00:36:49;;;;;;;7.28;3.10;;;;;;;5.68;83.66;101904.31;10296469;28;20095;-69
2021/10/25 00:41:45;;;;;;;6.43;3.05;;;;;;;5.68;83.51;101907.00;10287633;28;20466;-69
2021/10/25 00:46:42;;;;;;;10.70;3.53;;;;;;;5.70;82.93;101906.78;10288593;28;20665;-70
2021/10/25 00:51:38;;;;;;;8.10;3.50;;;;;;;5.63;83.40;101890.69;10286658;28;20041;-69
2021/10/25 00:56:40;;;;;;;8.68;3.33;;;;;;;5.57;83.37;101886.31;10289670;28;20075;-69
2021/10/25 01:06:48;;;;;;;6.85;3.20;;;;;;;5.48;83.13;101890.53;11059800;23;20036;-69
2021/10/25 01:11:45;;;;;;;11.27;3.30;;;;;;;5.40;83.46;101888.28;10260408;28;20044;-75
2021/10/25 01:16:42;;;;;;;9.38;3.60;;;;;;;5.31;83.70;101884.38;10249596;28;20041;-68
2021/10/25 01:21:38;;;;;;;9.13;3.47;;;;;;;5.27;84.21;101875.94;10262102;28;20064;-70
2021/10/25 01:26:35;;;;;;;12.85;3.80;;;;;;;5.23;83.67;101875.63;10249678;28;20045;-70
2021/10/25 01:31:32;;;;;;;8.52;4.28;;;;;;;5.23;84.33;101875.63;10250108;28;20091;-69
2021/10/25 01:36:28;;;;;;;10.32;3.78;;;;;;;5.26;84.77;101868.84;10251970;28;20068;-70
2021/10/25 01:41:25;;;;;;;10.10;3.28;;;;;;;5.23;84.92;101862.06;10253974;28;20079;-71
2021/10/25 01:46:21;;;;;;;9.85;3.45;;;;;;;5.22;85.03;101867.72;10251561;28;20065;-70
2021/10/25 01:51:18;;;;;;;8.70;3.40;;;;;;;5.18;84.83;101856.59;10250078;28;20045;-69
2021/10/25 01:56:15;;;;;;;8.60;3.40;;;;;;;5.15;84.78;101857.09;10252320;28;20415;-70
2021/10/25 02:01:16;;;;;;;10.25;3.70;;;;;;;5.10;84.63;101853.50;10251688;28;20073;-71
2021/10/25 02:06:13;;;;;;;8.60;3.65;;;;;;;5.07;85.14;101854.81;10251949;28;20579;-72
2021/10/25 02:11:09;;;;;;;8.75;3.47;;;;;;;5.03;84.94;101848.25;10250980;28;20052;-70
2021/10/25 02:16:06;;;;;;;8.57;4.07;;;;;;;5.02;84.97;101846.63;10255589;28;20441;-69
2021/10/25 02:21:03;;;;;;;8.75;3.65;;;;;;;4.98;85.20;101840.88;10259653;28;20124;-70
2021/10/25 02:25:59;;;;;;;12.35;4.10;;;;;;;4.94;85.02;101836.22;10252518;28;20443;-69
2021/10/25 02:30:56;;;;;;;8.40;3.72;;;;;;;4.94;85.17;101828.09;10246656;28;20091;-70
2021/10/25 02:35:53;;;;;;;6.35;3.35;;;;;;;4.96;84.97;101825.94;10247674;28;20045;-70
2021/10/25 02:40:49;;;;;;;11.95;3.95;;;;;;;4.95;84.80;101827.03;10261399;28;20041;-69
2021/10/25 02:45:46;;;;;;;7.22;3.70;;;;;;;4.94;84.96;101826.19;10257395;28;20076;-69
2021/10/25 02:50:43;;;;;;;6.65;3.78;;;;;;;4.86;84.82;101826.66;10242126;28;20499;-69
2021/10/25 02:55:39;;;;;;;12.45;3.83;;;;;;;4.82;85.25;101820.91;10245299;28;20071;-70
2021/10/25 03:00:36;;;;;;;6.72;3.63;;;;;;;4.78;85.49;101819.78;10260470;28;20061;-70
2021/10/25 03:05:33;;;;;;;12.80;4.32;;;;;;;4.76;86.04;101815.69;10246185;28;20406;-70
2021/10/25 03:10:30;;;;;;;9.05;3.97;;;;;;;4.76;85.73;101811.09;10245770;28;20049;-71
2021/10/25 03:15:27;;;;;;;7.57;3.38;;;;;;;4.77;85.51;101807.28;10252248;28;20065;-69
2021/10/25 03:20:23;;;;;;;9.75;3.95;;;;;;;4.77;86.05;101812.72;10257043;28;20049;-70
2021/10/25 03:25:20;;;;;;;11.15;3.55;;;;;;;4.78;85.82;101799.97;10245681;28;20187;-70
2021/10/25 03:30:18;;;;;;;10.73;4.05;;;;;;;4.77;85.71;101801.06;10232695;28;20072;-69
2021/10/25 03:35:14;;;;;;;7.25;3.75;;;;;;;4.72;86.25;101801.81;10245109;28;20091;-71
2021/10/25 03:40:11;;;;;;;8.00;4.20;;;;;;;4.68;85.71;101814.22;10254600;28;20057;-71
2021/10/25 03:45:25;;;;;;;9.35;3.58;;;;;;;4.70;86.47;101800.44;10251453;28;20068;-72
2021/10/25 03:50:26;;;;;;;;;;;;;;;4.74;85.30;101799.69;10223670;28;20041;-71
2021/10/25 03:55:41;;;;;;;10.48;3.95;;;;;;;4.67;85.70;101800.94;10229706;28;19936;-71
2021/10/25 04:31:57;;;;;;;12.35;4.53;;;;;;;4.56;86.08;101794.56;10246497;28;20059;-72
2021/10/25 04:36:54;;;;;;;9.30;3.97;;;;;;;4.58;86.24;101787.00;10254434;28;20045;-72
2021/10/25 04:41:50;;;;;;;11.90;5.70;;;;;;;4.53;86.43;101786.94;10242495;28;20041;-72
2021/10/25 04:46:47;;;;;;;13.13;4.40;;;;;;;4.48;86.25;101786.84;10252041;28;20041;-72
2021/10/25 04:51:47;;;;;;;13.02;4.18;;;;;;;4.40;86.27;101786.22;10251424;28;20069;-72
2021/10/25 04:56:44;;;;;;;8.95;4.57;;;;;;;4.33;87.01;101780.19;10260484;28;20045;-72
2021/10/25 05:01:40;;;;;;;8.52;4.30;;;;;;;4.28;86.74;101774.69;10255664;28;20088;-72
2021/10/25 05:06:37;;;;;;;11.27;4.30;;;;;;;4.25;86.44;101767.09;10261320;28;20075;-72
2021/10/25 05:11:33;;;;;;;13.05;4.28;;;;;;;4.25;87.37;101769.78;10261197;28;20124;-72
2021/10/25 05:16:30;;;;;;;11.07;4.95;;;;;;;4.27;86.98;101764.09;10258616;28;20098;-72
2021/10/25 05:21:27;;;;;;;15.50;4.75;;;;;;;4.24;86.97;101762.72;10252173;28;20087;-72
2021/10/25 05:26:23;;;;;;;12.02;4.95;;;;;;;4.22;87.65;101767.56;10244200;28;20037;-72
2021/10/25 05:31:20;;;;;;;9.10;4.50;;;;;;;4.18;87.65;101766.44;10263007;28;20041;-72
2021/10/25 05:36:17;;;;;;;8.93;4.45;;;;;;;4.22;87.81;101772.97;10254886;28;20044;-72
2021/10/25 05:41:14;;;;;;;14.70;4.55;;;;;;;4.28;87.55;101760.34;10249489;28;20038;-72
2021/10/25 05:46:10;;;;;;;10.52;4.63;;;;;;;4.34;87.89;101759.31;10254217;28;20414;-71
2021/10/25 05:51:07;;;;;;;12.32;5.10;;;;;;;4.36;87.69;101758.03;10262415;28;20041;-72
2021/10/25 05:56:04;;;;;;;10.45;4.40;;;;;;;4.37;87.74;101754.25;10247887;28;20071;-72
2021/10/25 06:01:07;;;;;;;10.98;5.18;;;;;;;4.37;87.62;101748.00;10250404;28;20042;-72
2021/10/25 06:06:03;;;;;;;10.88;4.85;;;;;;;4.40;88.58;101742.91;10248314;28;20042;-72
2021/10/25 06:11:00;;;;;;;9.07;4.97;;;;;;;4.41;88.40;101744.56;10261336;28;20041;-72
2021/10/25 06:15:58;;;;;;;14.80;4.72;;;;;;;4.40;88.02;101759.16;10254132;28;20075;-71
2021/10/25 06:20:55;;;;;;;11.05;4.25;;;;;;;4.46;88.41;101751.13;10262384;28;20520;-72
2021/10/25 06:25:52;;;;;;;8.07;4.60;;;;;;;4.40;88.72;101755.63;10259616;28;20136;-72
2021/10/25 06:31:02;;;;;;;11.88;5.10;;;;;;;4.43;88.06;101755.97;10255582;28;20626;-72
2021/10/25 06:36:03;;;;;;;8.20;4.65;;;;;;;4.49;88.22;101756.03;10243549;28;20072;-72
2021/10/25 06:41:01;;;;;;;10.77;5.65;;;;;;;4.54;88.32;101742.53;10247583;28;20141;-72
2021/10/25 06:45:57;;;;;;;13.68;5.25;;;;;;;4.53;87.88;101749.84;10251414;28;20443;-72
2021/10/25 06:50:54;;;;;;;12.27;5.30;;;;;;;4.61;88.72;101749.38;10258467;28;20049;-71
2021/10/25 06:55:51;;;;;;;15.43;7.60;;;;;;;4.67;88.47;101742.16;10244352;28;20072;-71
2021/10/25 07:00:50;;;;;;;11.77;5.97;;;;;;;4.67;88.25;101754.88;10254116;28;20037;-71
2021/10/25 07:05:47;;;;;;;13.50;5.72;;;;;;;4.75;89.03;101763.38;10251142;28;20048;-71
2021/10/25 07:10:44;;;;;;;10.43;5.38;;;;;;;4.83;89.15;101757.53;10256597;28;20037;-71
2021/10/25 07:15:49;;;;;;;13.65;7.05;;;;;;;4.84;89.59;101775.41;10245534;28;20093;-71
2021/10/25 07:21:05;;;;;;;12.20;5.78;;;;;;;4.92;88.80;101776.03;10255189;28;20053;-72
2021/10/25 08:13:11;;;;;;;10.27;5.70;;;;;;;5.79;86.42;101774.16;10241898;28;20069;-72
2021/10/25 08:18:29;;;;;;;12.23;5.55;;;;;;;5.86;85.90;101775.56;10239031;28;20046;-72
2021/10/25 08:23:26;;;;;;;14.20;6.40;;;;;;;5.97;86.39;101765.63;10235355;28;20115;-72
2021/10/25 08:28:22;;;;;;;11.20;5.72;;;;;;;6.03;86.19;101759.13;10259525;28;20046;-72
2021/10/25 08:43:52;;;;;;;10.73;6.03;;;;;;;6.49;84.96;101756.69;10271631;28;20442;-72
2021/10/25 08:48:49;;;;;;;12.57;6.13;;;;;;;6.64;84.26;101774.16;10254237;28;20040;-72
2021/10/25 08:53:46;;;;;;;16.33;6.18;;;;;;;6.76;84.30;101761.16;10248276;28;20081;-72
2021/10/25 08:58:45;;;;;;;12.00;6.75;;;;;;;6.84;84.17;101752.47;10249278;28;20050;-72
2021/10/25 09:03:42;;;;;;;8.82;5.70;;;;;;;6.94;83.69;101757.94;10257774;28;20044;-72
2021/10/25 09:08:38;;;;;;;11.23;6.32;;;;;;;7.03;83.05;101738.38;10251875;28;20045;-72
2021/10/25 09:13:43;;;;;;;12.48;6.80;;;;;;;7.20;82.88;101732.72;10268463;28;20045;-72
2021/10/25 09:18:40;;;;;;;13.73;5.82;;;;;;;7.31;81.88;101732.44;10253304;28;20047;-72
2021/10/25 09:23:38;;;;;;;12.40;5.82;;;;;;;7.47;81.81;101733.28;10251379;28;20072;-72
2021/10/25 09:28:50;;;;;;;12.13;6.32;;;;;;;7.58;81.78;101723.19;10253591;28;20103;-71
2021/10/25 09:33:56;;;;;;;13.18;6.07;;;;;;;7.75;81.46;101707.41;10248969;28;20537;-75
2021/10/25 09:39:01;;;;;;;12.15;6.20;;;;;;;8.00;81.45;101694.81;10242008;28;20453;-72
2021/10/25 09:49:30;;;;;;;13.05;6.40;;;;;;;8.54;79.42;101702.28;10258371;28;20112;-72
2021/10/25 09:54:30;;;;;;;10.63;5.90;;;;;;;8.71;77.79;101729.19;10255772;28;20462;-76
2021/10/25 09:59:36;;;;;;;10.15;5.55;;;;;;;8.87;77.18;101734.56;10246149;28;20091;-73
2021/10/25 10:04:33;;;;;;;12.00;5.97;;;;;;;9.03;77.61;101717.81;10252207;28;20157;-71
2021/10/25 10:09:31;;;;;;;11.15;5.65;;;;;;;9.16;77.06;101716.34;10246240;28;20184;-71
2021/10/25 10:14:27;;;;;;;11.60;5.85;;;;;;;9.33;77.06;101724.16;10262072;28;20084;-74
2021/10/25 10:19:26;;;;;;;11.45;6.50;;;;;;;9.38;76.91;101720.56;10269985;28;20045;-71
2021/10/25 10:24:30;;;;;;;14.32;5.88;;;;;;;9.39;75.84;101712.09;10256027;28;20056;-74
2021/10/25 10:29:36;;;;;;;12.57;5.88;;;;;;;9.34;75.07;101714.88;10256497;28;20040;-72
2021/10/25 10:34:41;;;;;;;10.85;5.53;;;;;;;9.36;77.15;101701.75;10253019;28;20080;-72
2021/10/25 10:39:39;;;;;;;10.13;5.43;;;;;;;9.50;77.35;101706.56;10240104;28;20045;-73
2021/10/25 10:44:36;;;;;;;9.55;5.22;;;;;;;9.40;77.02;101702.81;10248651;28;20099;-72
2021/10/25 10:49:55;;;;;;;12.63;5.82;;;;;;;9.44;77.76;101714.75;10244791;28;20527;-70
2021/10/25 10:55:01;;;;;;;11.95;6.07;;;;;;;9.47;77.31;101713.41;10255822;28;20064;-74
2021/10/25 11:00:00;;;;;;;12.50;4.90;;;;;;;9.61;77.74;101710.84;10240917;28;20041;-74
2021/10/25 11:05:07;;;;;;;12.02;5.80;;;;;;;9.80;77.01;101717.19;10256779;28;20387;-72
2021/10/25 11:10:10;;;;;;;10.93;4.85;;;;;;;9.83;77.91;101722.06;10250427;28;20071;-74
2021/10/25 11:15:10;;;;;;;10.80;5.35;;;;;;;9.92;77.94;101700.41;10258319;28;20065;-72
2021/10/25 11:20:07;;;;;;;10.90;5.10;;;;;;;10.03;77.40;101718.31;10251071;28;20045;-74
2021/10/25 11:25:07;;;;;;;11.80;5.85;;;;;;;10.29;76.56;101707.94;10248301;28;20091;-72
2021/10/25 11:30:24;;;;;;;9.18;5.18;;;;;;;10.44;75.76;101704.22;10248245;28;20103;-73
2021/10/25 11:35:21;;;;;;;10.75;5.57;;;;;;;10.52;76.56;101689.09;10257293;28;23124;-73
2021/10/25 11:40:24;;;;;;;9.63;5.25;;;;;;;10.53;75.94;101690.69;10241789;28;20123;-71
2021/10/25 11:45:25;;;;;;;13.13;4.90;;;;;;;10.57;75.43;101680.81;10244042;28;20068;-74
2021/10/25 11:50:23;;;;;;;9.98;5.38;;;;;;;10.57;74.90;101674.53;10247857;28;20095;-71
2021/10/25 11:55:24;;;;;;;9.90;4.57;;;;;;;10.57;75.95;101672.59;10246603;28;20485;-71
2021/10/25 12:00:21;;;;;;;10.27;4.35;;;;;;;10.60;75.83;101663.78;10256022;28;20049;-71
2021/10/25 12:05:25;;;;;;;10.05;4.40;;;;;;;10.62;76.34;101666.25;10262334;28;20053;-72
2021/10/25 12:10:24;;;;;;;10.65;4.35;;;;;;;10.65;76.55;101671.97;10250016;28;20092;-71
2021/10/25 12:15:22;;;;;;;12.32;4.60;;;;;;;10.65;77.18;101658.28;10260910;28;20090;-71
2021/10/25 12:20:24;;;;;;;13.60;5.18;;;;;;;10.69;76.50;101653.81;10261194;28;20092;-73
2021/10/25 12:25:42;;;;;;;9.18;4.45;;;;;;;10.70;76.54;101663.66;10256534;28;20051;-71
2021/10/25 12:30:38;;;;;;;9.60;4.35;;;;;;;10.70;77.43;101655.47;10252460;28;20395;-71
2021/10/25 12:35:39;;;;;;;10.25;4.57;;;;;;;10.74;77.72;101655.66;10249903;28;20120;-71
2021/10/25 12:40:47;;;;;;;12.45;4.65;;;;;;;10.77;77.76;101651.53;10254815;28;20111;-70
2021/10/25 12:46:00;;;;;;;15.68;5.22;;;;;;;10.75;78.31;101649.09;10259938;28;20077;-71
2021/10/25 12:51:02;;;;;;;8.10;3.85;;;;;;;10.73;79.20;101641.19;10255140;28;20045;-71
2021/10/25 12:56:00;;;;;;;10.82;4.50;;;;;;;10.74;79.06;101636.53;10250278;28;20069;-71
2021/10/25 13:01:08;;;;;;;10.82;3.97;;;;;;;10.74;79.28;101637.34;10244454;28;20461;-70
2021/10/25 13:06:08;;;;;;;7.63;4.00;;;;;;;10.72;78.71;101628.63;10259274;28;20602;-73
2021/10/25 13:11:09;;;;;;;8.07;4.13;;;;;;;10.68;79.05;101632.25;10262230;28;20484;-74
2021/10/25 13:16:16;;;;;;;8.73;4.15;;;;;;;10.69;79.55;101622.94;10255256;28;20084;-75
2021/10/25 13:21:13;;;;;;;14.38;4.65;;;;;;;10.69;80.20;101623.75;10257271;28;20077;-72
2021/10/25 13:26:10;;;;;;;11.65;4.70;;;;;;;10.69;79.99;101625.66;10257219;28;20080;-71
2021/10/25 13:31:07;;;;;;;11.32;4.18;;;;;;;10.72;80.56;101620.44;10256257;28;20411;-73
2021/10/25 13:36:04;;;;;;;15.10;4.38;;;;;;;10.73;80.92;101624.78;10257096;28;20430;-70
2021/10/25 13:41:02;;;;;;;9.30;4.47;;;;;;;10.74;81.15;101620.13;10252916;28;20045;-76
2021/10/25 13:46:03;;;;;;;9.55;4.47;;;;;;;10.73;81.17;101624.78;10259333;28;20049;-72
2021/10/25 13:50:59;;;;;;;12.60;4.57;;;;;;;10.69;81.19;101617.47;10253795;28;20041;-72
2021/10/25 13:55:58;;;;;;;7.53;4.30;;;;;;;10.70;81.39;101614.44;10266931;28;20144;-71
2021/10/25 14:00:54;;;;;;;11.93;4.32;;;;;;;10.68;81.78;101610.38;10247462;28;20453;-71
2021/10/25 14:05:53;;;;;;;11.05;5.25;;;;;;;10.69;81.87;101612.78;10238371;28;20443;-73
2021/10/25 14:10:51;;;;;;;14.10;4.50;;;;;;;10.64;82.11;101599.22;10226343;28;20041;-71
2021/10/25 14:15:56;;;;;;;9.55;3.97;;;;;;;10.70;82.11;101603.50;10260291;28;20072;-72
2021/10/25 14:20:53;;;;;;;9.07;4.72;;;;;;;10.73;82.31;101608.38;10251497;28;20041;-71
2021/10/25 14:25:50;;;;;;;12.88;4.78;;;;;;;10.81;81.90;101603.31;10246028;28;20495;-73
2021/10/25 14:30:47;;;;;;;8.65;4.30;;;;;;;10.81;82.31;101592.38;10231625;28;20065;-72
2021/10/25 14:35:43;;;;;;;7.53;3.95;;;;;;;10.83;82.70;101595.63;10225658;28;20073;-71
2021/10/25 14:40:51;;;;;;;7.68;4.15;;;;;;;10.87;83.03;101596.69;10251519;28;20045;-71
2021/10/25 14:45:53;;;;;;;11.02;4.75;;;;;;;10.85;82.33;101598.91;10237944;28;20053;-73
2021/10/25 14:56:06;;;;;;;11.13;5.25;;;;;;;10.84;82.83;101591.81;10247986;28;20510;-73
2021/10/25 15:01:03;;;;;;;8.48;4.78;;;;;;;10.84;82.97;101592.63;10224411;28;20423;-70
2021/10/25 15:06:00;;;;;;;9.15;3.97;;;;;;;10.88;83.55;101587.34;10246393;28;20041;-71
2021/10/25 15:10:58;;;;;;;10.35;3.92;;;;;;;10.85;83.78;101587.94;10242790;28;20046;-71
2021/10/25 15:15:54;;;;;;;12.52;4.93;;;;;;;10.87;83.89;101585.72;10254180;28;20053;-72
2021/10/25 15:20:51;;;;;;;10.45;4.30;;;;;;;10.87;84.46;101575.59;10249067;28;20045;-73
2021/10/25 15:25:55;;;;;;;8.55;3.83;;;;;;;10.86;84.01;101573.16;10245542;28;20106;-70
2021/10/25 15:30:52;;;;;;;;;;;;;;;10.88;84.52;101576.41;10244250;28;20096;-72
2021/10/25 15:35:51;;;;;;;6.57;3.65;;;;;;;10.86;84.74;101567.69;10254476;28;19970;-72
2021/10/25 15:40:48;;;;;;;11.90;3.97;;;;;;;10.88;84.90;101560.78;10250003;28;20045;-73
2021/10/25 15:45:45;;;;;;;10.07;4.43;;;;;;;10.88;84.80;101566.25;10251572;28;20099;-72
2021/10/25 15:50:45;;;;;;;8.27;4.32;;;;;;;10.91;84.29;101564.88;10245395;28;20056;-72
2021/10/25 15:55:44;;;;;;;8.43;4.13;;;;;;;10.91;84.36;101565.69;10253935;28;20149;-72
2021/10/25 16:00:41;;;;;;;8.13;3.15;;;;;;;10.92;83.41;101558.28;10246184;28;20053;-73
2021/10/25 16:05:39;;;;;;;10.15;4.00;;;;;;;10.92;83.53;101555.53;10254148;28;20045;-72
2021/10/25 16:10:35;;;;;;;11.48;4.05;;;;;;;10.90;83.23;101553.09;10251654;28;20069;-70
2021/10/25 16:15:32;;;;;;;8.07;3.55;;;;;;;10.91;83.16;101548.47;10247421;28;20143;-73
2021/10/25 16:20:28;;;;;;;8.38;3.47;;;;;;;10.91;83.46;101557.47;10251762;28;20053;-72
2021/10/25 16:25:25;;;;;;;11.98;4.00;;;;;;;10.92;82.67;101556.34;10250669;28;20065;-73
2021/10/25 16:30:21;;;;;;;9.63;3.15;;;;;;;10.91;82.43;101553.94;10254591;28;20475;-72
2021/10/25 16:35:18;;;;;;;8.52;3.35;;;;;;;10.91;82.83;101553.94;10241453;28;20544;-72
2021/10/25 16:40:15;;;;;;;7.22;2.88;;;;;;;10.93;83.45;101557.16;10233050;28;20561;-72
2021/10/25 16:45:11;;;;;;;9.80;3.53;;;;;;;10.95;83.92;101563.16;10217631;28;20140;-72
2021/10/25 16:50:08;;;;;;;9.85;3.63;;;;;;;10.94;83.79;101564.28;10242726;28;20406;-72
2021/10/25 17:06:00;;;;;;;7.03;3.55;;;;;;;10.95;84.36;101576.81;10247496;28;20052;-73
2021/10/25 17:10:58;;;;;;;9.75;3.47;;;;;;;10.92;84.33;101571.97;10233243;28;20102;-69
2021/10/25 17:15:54;;;;;;;10.57;3.65;;;;;;;10.90;85.20;101576.91;10240515;28;20045;-71
2021/10/25 17:20:51;;;;;;;7.70;3.58;;;;;;;10.88;85.35;101581.88;10253594;28;20041;-71
2021/10/25 17:25:49;;;;;;;8.75;3.92;;;;;;;10.89;84.87;101578.03;10253033;28;20037;-71
2021/10/25 17:30:48;;;;;;;9.70;3.22;;;;;;;10.89;84.29;101583.50;10257461;28;20040;-71
2021/10/25 17:35:45;;;;;;;10.80;4.10;;;;;;;10.89;84.50;101583.50;10261792;28;20051;-72
2021/10/25 17:40:46;;;;;;;9.50;4.07;;;;;;;10.89;85.10;101583.50;10252001;28;20470;-71
2021/10/25 17:45:43;;;;;;;9.82;3.63;;;;;;;10.86;86.46;101584.09;10244520;28;20049;-71
2021/10/25 17:50:40;;;;;;;11.55;4.07;;;;;;;10.84;87.59;101580.88;10234893;28;20049;-74
2021/10/25 17:55:38;;;;;;;9.10;3.80;;;;;;;10.86;87.59;101581.34;10237146;28;20073;-74
2021/10/25 18:00:34;;;;;;;8.77;4.00;;;;;;;10.85;87.52;101571.53;10243135;28;20080;-71
2021/10/25 18:05:31;;;;;;;10.57;4.25;;;;;;;10.84;88.15;101569.94;10240393;28;20086;-70
2021/10/25 18:10:27;;;;;;;11.70;4.38;;;;;;;10.86;88.17;101573.16;10245783;28;20804;-73
2021/10/25 18:15:24;;;;;;;10.52;4.95;;;;;;;10.84;88.43;101569.94;10246085;28;21072;-71
2021/10/25 18:20:21;;;;;;;9.48;4.05;;;;;;;10.86;88.82;101564.94;10253021;28;20092;-72
2021/10/25 18:25:21;;;;;;;10.73;4.45;;;;;;;10.84;88.29;101565.25;10231159;28;20387;-72
2021/10/25 18:30:17;;;;;;;8.77;4.50;;;;;;;10.87;88.19;101561.09;10241949;28;20116;-72
2021/10/25 18:35:15;;;;;;;8.63;4.57;;;;;;;10.89;87.77;101553.41;10238489;28;20098;-72
2021/10/25 18:40:13;;;;;;;12.57;4.68;;;;;;;10.90;87.42;101553.09;10238107;28;20054;-72
2021/10/25 18:45:11;;;;;;;8.88;4.38;;;;;;;10.87;88.10;101555.63;10236287;28;20045;-69
2021/10/25 18:50:09;;;;;;;11.38;4.40;;;;;;;10.84;86.78;101548.03;10236746;28;20049;-72
2021/10/25 18:55:08;;;;;;;9.57;4.68;;;;;;;10.82;85.78;101536.59;10238408;28;20620;-72
2021/10/25 19:00:11;;;;;;;9.15;3.90;;;;;;;10.78;85.62;101532.81;10239488;28;20063;-72
2021/10/25 19:05:09;;;;;;;15.07;3.95;;;;;;;10.77;85.11;101542.13;10242508;28;20096;-71
2021/10/25 19:10:06;;;;;;;10.70;3.90;;;;;;;10.77;85.24;101542.13;10240250;28;20132;-71
2021/10/25 19:15:04;;;;;;;8.25;3.58;;;;;;;10.77;84.86;101547.59;10243537;28;20133;-73
2021/10/25 19:20:00;;;;;;;10.27;4.05;;;;;;;10.81;85.22;101548.63;10236729;28;20074;-73
2021/10/25 19:24:57;;;;;;;8.52;3.13;;;;;;;10.85;85.90;101550.47;10243784;28;20087;-72
2021/10/25 19:29:54;;;;;;;10.15;4.07;;;;;;;10.87;85.80;101550.16;10226461;28;20502;-73
2021/10/25 19:34:52;;;;;;;8.32;4.10;;;;;;;10.83;86.61;101543.66;10242098;28;20041;-72
2021/10/25 19:39:49;;;;;;;7.22;3.30;;;;;;;10.82;86.84;101544.78;10254846;28;20513;-72
2021/10/25 19:44:45;;;;;;;8.52;3.85;;;;;;;10.86;86.40;101552.09;10238421;28;20095;-72
2021/10/25 19:49:43;;;;;;;7.82;3.78;;;;;;;10.84;85.44;101542.56;10244063;28;20045;-72
2021/10/25 19:54:40;;;;;;;11.50;4.15;;;;;;;10.86;84.84;101551.25;10240115;28;20052;-70
2021/10/25 19:59:36;;;;;;;7.47;3.33;;;;;;;10.88;84.24;101551.78;10235858;28;20129;-70
2021/10/25 20:04:33;;;;;;;8.77;3.90;;;;;;;10.88;84.53;101544.38;10249841;28;20044;-70
2021/10/25 20:09:29;;;;;;;9.68;3.88;;;;;;;10.86;84.79;101551.25;10243472;28;20053;-69
2021/10/25 20:14:26;;;;;;;7.40;3.70;;;;;;;10.90;83.75;101541.34;10242688;28;20042;-70
2021/10/25 20:19:22;;;;;;;8.27;3.80;;;;;;;10.92;82.66;101544.59;10233521;28;20100;-70
2021/10/25 20:24:26;;;;;;;8.85;3.35;;;;;;;10.99;81.25;101542.28;10241865;28;20049;-68
2021/10/25 20:29:23;;;;;;;9.23;3.60;;;;;;;10.97;82.22;101536.28;10257461;28;20076;-68
2021/10/25 20:34:20;;;;;;;8.18;3.75;;;;;;;11.00;82.24;101540.34;10264606;28;20099;-69
2021/10/25 20:39:16;;;;;;;9.18;3.72;;;;;;;10.97;82.81;101549.19;10256420;28;20076;-69
2021/10/25 20:44:13;;;;;;;9.30;4.15;;;;;;;10.95;83.15;101554.94;10255033;28;20083;-70
2021/10/25 20:49:10;;;;;;;9.57;4.07;;;;;;;10.97;82.45;101547.25;10258204;28;20088;-70
2021/10/25 20:54:06;;;;;;;10.15;3.95;;;;;;;10.99;81.78;101550.50;10258519;28;20045;-69
2021/10/25 20:59:03;;;;;;;8.02;4.30;;;;;;;10.94;82.46;101553.31;10259238;28;20084;-71
2021/10/25 21:04:00;;;;;;;6.75;3.70;;;;;;;10.89;82.45;101561.63;10255807;28;20090;-69
2021/10/25 21:08:56;;;;;;;7.18;3.50;;;;;;;10.91;83.59;101559.41;10262470;28;20041;-69
2021/10/25 21:13:56;;;;;;;8.90;4.45;;;;;;;10.90;82.38;101555.03;10258774;28;20132;-70
2021/10/25 21:18:54;;;;;;;8.77;4.20;;;;;;;10.94;83.69;101567.81;10263508;28;20045;-69
2021/10/25 21:23:50;;;;;;;9.32;3.97;;;;;;;10.91;83.39;101560.22;10252314;28;20068;-68
2021/10/25 21:28:47;;;;;;;10.48;4.07;;;;;;;10.89;83.70;101561.63;10257635;28;20517;-68
2021/10/25 21:33:45;;;;;;;8.20;3.78;;;;;;;10.87;83.74;101561.09;10260922;28;20099;-70
2021/10/25 21:38:44;;;;;;;9.35;4.53;;;;;;;10.86;83.90;101556.72;10260504;28;20506;-69
2021/10/25 21:43:41;;;;;;;8.75;4.18;;;;;;;10.92;81.89;101550.88;10252987;28;20387;-69
2021/10/25 21:48:38;;;;;;;7.00;3.95;;;;;;;10.90;81.91;101544.88;10262407;28;20094;-69
2021/10/25 21:53:34;;;;;;;10.95;4.80;;;;;;;10.99;80.91;101539.56;10255615;28;20084;-69
2021/10/25 21:58:32;;;;;;;8.35;4.95;;;;;;;11.06;80.83;101550.91;10259387;28;20072;-70
2021/10/25 22:03:29;;;;;;;9.40;6.07;;;;;;;11.06;80.52;101541.91;10264309;28;20041;-70
2021/10/25 22:08:26;;;;;;;11.98;6.00;;;;;;;11.08;80.33;101551.44;10263251;28;20041;-70
2021/10/25 22:13:22;;;;;;;13.88;6.35;;;;;;;11.12;80.33;101541.50;10257362;28;20104;-70
2021/10/25 22:18:20;;;;;;;10.93;6.55;;;;;;;11.12;80.18;101533.31;10253042;28;20075;-70
2021/10/25 22:23:17;;;;;;;10.88;6.82;;;;;;;11.15;80.20;101532.69;10255953;28;20072;-69
2021/10/25 22:28:14;;;;;;;13.55;7.57;;;;;;;11.18;80.24;101538.69;10260798;28;20178;-70
2021/10/25 22:33:10;;;;;;;12.77;6.38;;;;;;;11.16;80.50;101528.84;10258451;28;20147;-70
2021/10/25 22:38:07;;;;;;;14.30;6.95;;;;;;;11.14;80.87;101525.59;10255594;28;20464;-69
2021/10/25 22:43:04;;;;;;;13.23;8.65;;;;;;;11.12;80.77;101521.56;10256512;28;20555;-68
2021/10/25 22:48:00;;;;;;;12.52;7.72;;;;;;;11.14;81.15;101520.13;10259522;28;20033;-68
2021/10/25 22:52:57;;;;;;;16.27;9.90;;;;;;;11.15;81.55;101527.22;10260898;28;20041;-69
2021/10/25 22:57:53;;;;;;;18.88;9.82;;;;;;;11.15;81.58;101521.75;10262279;28;20128;-70
2021/10/25 23:02:49;;;;;;;16.77;10.80;;;;;;;11.15;82.53;101521.75;10251959;28;20045;-68
2021/10/25 23:07:46;;;;;;;14.93;9.45;;;;;;;11.19;82.27;101526.63;10262126;28;20135;-70
2021/10/25 23:12:42;;;;;;;19.02;10.38;;;;;;;11.22;82.70;101520.53;10258325;28;20069;-70
2021/10/25 23:17:41;;;;;;;16.25;9.98;;;;;;;11.22;82.58;101526.03;10258180;28;20041;-70
2021/10/25 23:22:38;;;;;;;15.75;9.98;;;;;;;11.24;82.19;101530.06;10262214;28;20706;-70
2021/10/25 23:27:35;;;;;;;15.45;9.82;;;;;;;11.24;82.47;101523.78;10260206;28;20045;-68
2021/10/25 23:32:31;;;;;;;14.23;8.85;;;;;;;11.22;82.44;101526.03;10253535;28;20037;-68
2021/10/25 23:37:28;;;;;;;13.85;9.55;;;;;;;11.20;82.54;101522.78;10252076;28;20743;-69
2021/10/25 23:42:25;;;;;;;15.30;9.18;;;;;;;11.19;82.66;101526.63;10258524;28;20076;-69
2021/10/25 23:47:21;;;;;;;16.10;9.43;;;;;;;11.18;82.18;101519.50;10261124;28;20402;-69
2021/10/25 23:52:18;;;;;;;16.90;9.60;;;;;;;11.18;83.02;101525.00;10252978;28;20114;-67
2021/10/25 23:57:14;;;;;;;14.75;9.93;;;;;;;11.18;82.04;101533.19;10251680;28;20414;-69
